Time;durP1;ratioP1;P1;durP2;ratioP2;P2;SDS_P1;SDS_P2;PMS_P1;PMS_P2;Temp;Humidity;BMP_temperature;BMP_pressure;BME280_temperature;BME280_humidity;BME280_pressure;Samples;Min_cycle;Max_cycle;Signal;HPM_P1;HPM_P2
2023/01/12 00:01:32;;;;;;;23.20;9.80;;;;;;;-7.76;74.66;100773.11;106927;1257;71248;-82
2023/01/12 00:04:01;;;;;;;21.50;9.70;;;;;;;-7.79;74.56;100775.41;106851;1259;75007;-84
2023/01/12 00:06:31;;;;;;;20.70;9.30;;;;;;;-7.86;74.95;100779.50;107605;1253;59722;-83
2023/01/12 00:08:58;;;;;;;24.00;10.30;;;;;;;-7.91;74.89;100784.73;106759;1253;60412;-84
2023/01/12 00:11:25;;;;;;;21.70;10.10;;;;;;;-7.96;74.93;100793.91;106526;1252;75183;-84
2023/01/12 00:13:52;;;;;;;21.40;9.90;;;;;;;-8.00;75.04;100802.77;106277;1254;72471;-85
2023/01/12 00:19:10;;;;;;;18.50;8.40;;;;;;;-7.86;75.35;100801.85;105957;1254;63249;-83
2023/01/12 00:21:47;;;;;;;20.40;10.20;;;;;;;-7.80;75.13;100797.10;106175;1254;61245;-81
2023/01/12 00:24:16;;;;;;;23.50;9.70;;;;;;;-7.83;74.99;100795.78;106202;1254;75802;-83
2023/01/12 00:26:44;;;;;;;19.40;10.70;;;;;;;-7.89;75.28;100798.96;106842;1255;71367;-82
2023/01/12 00:29:11;;;;;;;21.80;9.80;;;;;;;-7.93;75.34;100806.60;107596;1254;73464;-84
2023/01/12 00:31:38;;;;;;;19.20;9.90;;;;;;;-7.98;75.26;100809.27;108262;1254;60913;-83
2023/01/12 00:34:05;;;;;;;24.30;10.70;;;;;;;-8.02;75.21;100805.90;106289;1254;62147;-83
2023/01/12 00:36:32;;;;;;;28.50;11.70;;;;;;;-8.06;75.19;100802.17;106776;1254;75781;-84
2023/01/12 00:38:59;;;;;;;22.40;10.00;;;;;;;-8.03;75.49;100804.70;107280;1253;70984;-86
2023/01/12 00:46:57;;;;;;;16.10;8.30;;;;;;;-7.78;75.44;100812.55;108817;1254;61247;-83
2023/01/12 00:49:24;;;;;;;19.10;9.40;;;;;;;-7.83;75.22;100804.20;106632;1254;75939;-81
2023/01/12 00:51:51;;;;;;;20.60;8.80;;;;;;;-7.89;75.31;100804.30;106050;1254;69651;-81
2023/01/12 00:54:18;;;;;;;18.80;9.20;;;;;;;-7.95;75.31;100787.72;106017;1254;72514;-82
2023/01/12 00:56:45;;;;;;;19.60;9.40;;;;;;;-8.02;75.64;100783.70;106004;1254;62351;-82
2023/01/12 00:59:12;;;;;;;18.90;8.90;;;;;;;-8.07;75.60;100784.64;106423;1253;62323;-82
2023/01/12 01:01:38;;;;;;;17.10;9.60;;;;;;;-8.06;75.51;100780.68;106274;1253;74644;-79
2023/01/12 01:04:06;;;;;;;18.30;8.50;;;;;;;-7.93;75.45;100776.84;106278;1254;70481;-79
2023/01/12 01:06:36;;;;;;;20.60;9.30;;;;;;;-7.81;75.38;100780.09;106732;1257;74704;-80
2023/01/12 01:09:03;;;;;;;17.60;8.50;;;;;;;-7.77;75.36;100785.86;106600;1254;61825;-78
2023/01/12 01:11:29;;;;;;;17.00;8.30;;;;;;;-7.80;75.64;100789.19;106273;1254;62137;-78
2023/01/12 01:13:58;;;;;;;19.60;9.20;;;;;;;-7.83;75.34;100796.63;106070;1253;72054;-80
2023/01/12 01:16:25;;;;;;;19.00;9.10;;;;;;;-7.87;75.41;100797.41;106158;1259;71200;-79
2023/01/12 01:18:51;;;;;;;14.50;7.50;;;;;;;-7.92;75.61;100796.10;106370;1254;74817;-81
2023/01/12 01:21:18;;;;;;;16.60;8.60;;;;;;;-7.97;75.51;100802.71;106448;1254;62629;-79
2023/01/12 01:23:45;;;;;;;15.20;8.90;;;;;;;-8.01;75.51;100808.80;106383;1254;62302;-81
2023/01/12 01:26:14;;;;;;;21.90;8.90;;;;;;;-7.92;75.50;100815.70;107803;1259;75970;-82
2023/01/12 01:28:41;;;;;;;19.10;7.80;;;;;;;-7.80;75.69;100813.95;106750;1254;70474;-79
2023/01/12 01:31:11;;;;;;;15.60;8.60;;;;;;;-7.69;75.53;100808.61;106152;1253;72342;-78
2023/01/12 01:33:38;;;;;;;13.30;7.20;;;;;;;-7.68;75.39;100820.80;107980;1253;61621;-84
2023/01/12 01:36:05;;;;;;;13.20;7.90;;;;;;;-7.73;75.51;100817.79;109134;1253;60934;-82
2023/01/12 01:38:32;;;;;;;16.50;8.30;;;;;;;-7.77;75.79;100827.67;108686;1252;74459;-82
2023/01/12 01:40:59;;;;;;;16.20;7.90;;;;;;;-7.81;75.82;100828.92;107389;1259;71397;-81
2023/01/12 01:43:27;;;;;;;15.80;9.00;;;;;;;-7.85;75.93;100821.95;106235;1254;73984;-77
2023/01/12 01:46:00;;;;;;;18.50;8.80;;;;;;;-7.89;76.19;100820.81;106078;1253;62293;-79
2023/01/12 01:48:26;;;;;;;22.70;9.50;;;;;;;-7.89;76.27;100826.66;106602;1254;61656;-79
2023/01/12 01:50:57;;;;;;;15.90;8.50;;;;;;;-7.76;75.87;100828.69;108032;1254;74750;-79
2023/01/12 01:53:27;;;;;;;18.00;8.60;;;;;;;-7.62;75.88;100829.48;107458;1252;70804;-79
2023/01/12 01:55:58;;;;;;;18.00;8.00;;;;;;;-7.54;75.88;100828.99;106535;1253;75023;-84
2023/01/12 01:58:30;;;;;;;23.90;9.50;;;;;;;-7.56;75.64;100827.14;105951;1254;60437;-82
2023/01/12 02:00:57;;;;;;;17.80;9.80;;;;;;;-7.57;76.09;100832.15;106435;1259;61171;-79
2023/01/12 02:03:24;;;;;;;20.30;9.50;;;;;;;-7.61;76.10;100833.25;106047;1254;74663;-80
2023/01/12 02:05:51;;;;;;;17.40;9.00;;;;;;;-7.68;76.04;100838.86;106174;1253;70142;-79
2023/01/12 02:08:21;;;;;;;17.60;9.60;;;;;;;-7.74;75.77;100839.83;107437;1254;71722;-77
2023/01/12 02:10:49;;;;;;;17.20;9.60;;;;;;;-7.81;76.28;100835.13;108528;1252;61281;-78
2023/01/12 02:16:25;;;;;;;19.30;8.10;;;;;;;-7.63;76.34;100826.40;106243;1254;74136;-77
2023/01/12 02:18:55;;;;;;;24.30;8.30;;;;;;;-7.55;76.15;100831.26;105844;1254;72404;-80
2023/01/12 02:21:41;;;;;;;16.50;8.70;;;;;;;-7.56;76.33;100835.05;105849;1254;74961;-79
2023/01/12 02:24:45;;;;;;;17.10;8.30;;;;;;;-7.61;76.68;100834.80;105897;1253;60702;-78
2023/01/12 02:27:42;;;;;;;22.30;9.50;;;;;;;-7.69;76.61;100838.38;105871;1253;61247;-80
2023/01/12 02:30:38;;;;;;;20.90;10.30;;;;;;;-7.80;76.76;100834.77;105895;1254;75905;-78
2023/01/12 02:33:23;;;;;;;17.00;9.30;;;;;;;-7.94;76.94;100825.88;106055;1253;68866;-79
2023/01/12 02:35:55;;;;;;;18.90;8.70;;;;;;;-7.96;77.43;100833.30;105877;1254;73906;-76
2023/01/12 02:38:30;;;;;;;20.20;8.50;;;;;;;-7.88;77.29;100823.54;105741;1254;62682;-77
2023/01/12 02:41:08;;;;;;;15.90;8.60;;;;;;;-7.79;77.64;100820.30;105873;1253;61326;-78
2023/01/12 02:43:35;;;;;;;22.50;10.40;;;;;;;-7.80;77.93;100818.09;105795;1254;73282;-79
2023/01/12 02:46:10;;;;;;;17.00;9.40;;;;;;;-7.83;78.22;100820.55;105917;1260;71398;-78
2023/01/12 02:48:47;;;;;;;19.70;9.50;;;;;;;-7.85;78.45;100817.13;105903;1254;74588;-79
2023/01/12 02:51:14;;;;;;;18.20;10.10;;;;;;;-7.90;78.45;100822.89;106066;1254;61245;-78
2023/01/12 02:53:52;;;;;;;20.30;10.40;;;;;;;-7.93;78.85;100815.72;106159;1254;60444;-79
2023/01/12 02:56:31;;;;;;;23.70;11.70;;;;;;;-7.98;79.10;100814.76;108370;1253;74669;-80
2023/01/12 02:59:10;;;;;;;24.40;11.30;;;;;;;-7.91;78.95;100807.94;107936;1253;70950;-79
2023/01/12 03:01:37;;;;;;;20.30;10.10;;;;;;;-7.74;78.69;100804.23;106394;1254;71634;-79
2023/01/12 03:04:05;;;;;;;19.50;9.30;;;;;;;-7.61;78.40;100804.16;105902;1254;61781;-77
2023/01/12 03:06:50;;;;;;;17.90;9.90;;;;;;;-7.57;78.51;100802.55;106627;1254;62106;-78
2023/01/12 03:09:17;;;;;;;22.60;10.30;;;;;;;-7.62;78.79;100808.67;107162;1254;74774;-77
2023/01/12 03:11:45;;;;;;;17.60;11.00;;;;;;;-7.66;78.93;100803.21;106914;1258;71477;-77
2023/01/12 03:14:12;;;;;;;16.50;9.20;;;;;;;-7.71;78.99;100795.05;106982;1254;72421;-79
2023/01/12 03:16:39;;;;;;;23.70;10.40;;;;;;;-7.77;79.16;100796.19;106693;1254;61111;-79
2023/01/12 03:19:15;;;;;;;20.90;11.00;;;;;;;-7.84;79.71;100796.98;106607;1254;61277;-78
2023/01/12 03:21:46;;;;;;;28.20;13.30;;;;;;;-7.89;79.69;100802.92;106474;1256;74650;-79
2023/01/12 03:24:14;;;;;;;22.30;9.60;;;;;;;-7.78;79.70;100794.14;106565;1254;69094;-80
2023/01/12 03:26:45;;;;;;;20.60;9.00;;;;;;;-7.62;79.84;100786.30;107436;1254;74980;-80
2023/01/12 03:29:24;;;;;;;17.00;9.50;;;;;;;-7.49;79.88;100775.39;106679;1254;60455;-81
2023/01/12 03:31:51;;;;;;;19.20;10.10;;;;;;;-7.44;79.88;100769.62;105763;1254;61474;-81
2023/01/12 03:34:18;;;;;;;21.40;9.60;;;;;;;-7.44;80.21;100768.41;105817;1259;73713;-81
2023/01/12 03:37:14;;;;;;;15.80;9.10;;;;;;;-7.44;80.33;100768.08;105661;1260;72522;-81
2023/01/12 03:39:57;;;;;;;15.80;9.30;;;;;;;-7.45;80.37;100760.69;105886;1254;71488;-80
2023/01/12 03:42:30;;;;;;;19.50;8.80;;;;;;;-7.47;80.58;100760.56;106003;1254;60849;-78
2023/01/12 03:45:18;;;;;;;16.10;8.30;;;;;;;-7.47;80.91;100759.17;105851;1254;62570;-79
2023/01/12 03:47:45;;;;;;;16.50;8.50;;;;;;;-7.48;80.81;100761.09;105680;1254;75684;-82
2023/01/12 03:50:17;;;;;;;19.30;9.40;;;;;;;-7.48;80.82;100753.52;105782;1254;71812;-82
2023/01/12 03:52:44;;;;;;;21.80;9.90;;;;;;;-7.34;80.70;100752.92;105733;1254;72732;-81
2023/01/12 03:55:13;;;;;;;17.90;9.30;;;;;;;-7.15;80.44;100745.48;105788;1254;61204;-82
2023/01/12 03:57:40;;;;;;;16.50;7.90;;;;;;;-7.07;80.67;100744.44;106199;1256;60460;-83
2023/01/12 04:00:10;;;;;;;15.20;8.50;;;;;;;-7.08;80.65;100753.77;106013;1260;75961;-82
2023/01/12 04:02:43;;;;;;;18.50;8.90;;;;;;;-7.07;81.09;100751.14;107775;1253;69137;-77
2023/01/12 04:05:12;;;;;;;14.10;8.60;;;;;;;-7.03;81.30;100752.11;108395;1253;73493;-80
2023/01/12 04:07:39;;;;;;;16.50;8.30;;;;;;;-7.00;81.33;100744.30;108361;1254;61211;-82
2023/01/12 04:10:06;;;;;;;16.10;8.50;;;;;;;-6.99;81.41;100738.59;105753;1259;60495;-79
2023/01/12 04:12:33;;;;;;;17.90;8.50;;;;;;;-7.00;81.69;100735.86;107966;1254;74673;-79
2023/01/12 04:15:00;;;;;;;20.80;9.40;;;;;;;-7.02;81.74;100736.60;106180;1259;71157;-78
2023/01/12 04:17:28;;;;;;;15.70;8.90;;;;;;;-7.02;82.04;100738.81;105889;1254;74999;-79
2023/01/12 04:19:55;;;;;;;16.90;7.60;;;;;;;-6.92;82.21;100738.25;105875;1259;62955;-80
2023/01/12 04:25:18;;;;;;;13.30;7.30;;;;;;;-6.77;82.59;100736.73;106193;1254;74271;-80
2023/01/12 04:27:47;;;;;;;13.30;6.90;;;;;;;-6.81;83.03;100732.87;106857;1254;70413;-78
2023/01/12 04:30:15;;;;;;;13.90;7.60;;;;;;;-6.81;83.01;100725.96;108165;1254;73676;-80
2023/01/12 04:32:43;;;;;;;12.40;7.30;;;;;;;-6.81;83.31;100721.48;106288;1255;61171;-78
2023/01/12 04:35:11;;;;;;;14.10;7.60;;;;;;;-6.81;83.46;100723.23;105887;1256;60374;-79
2023/01/12 04:37:38;;;;;;;17.90;8.70;;;;;;;-6.80;83.60;100728.17;105903;1254;75773;-79
2023/01/12 04:40:06;;;;;;;14.70;8.20;;;;;;;-6.66;83.23;100725.29;106004;1259;71480;-78
2023/01/12 04:45:18;;;;;;;15.70;8.50;;;;;;;-6.50;83.88;100715.80;106114;1254;60646;-79
2023/01/12 04:47:45;;;;;;;15.60;8.20;;;;;;;-6.50;84.15;100714.23;106009;1254;61192;-78
2023/01/12 04:50:12;;;;;;;17.50;8.80;;;;;;;-6.50;84.21;100710.30;105853;1259;75855;-81
2023/01/12 04:52:39;;;;;;;18.70;9.30;;;;;;;-6.51;84.44;100709.61;105787;1254;71393;-80
2023/01/12 04:55:06;;;;;;;15.10;8.40;;;;;;;-6.53;84.56;100711.20;105866;1253;73592;-83
2023/01/12 04:57:34;;;;;;;15.80;9.40;;;;;;;-6.53;84.62;100711.20;106877;1254;62964;-81
2023/01/12 05:00:01;;;;;;;18.90;9.70;;;;;;;-6.43;84.45;100709.42;107520;1253;61326;-81
2023/01/12 05:02:28;;;;;;;15.60;8.30;;;;;;;-6.34;84.54;100713.17;107102;1254;75719;-84
2023/01/12 05:04:55;;;;;;;17.00;8.70;;;;;;;-6.37;84.83;100708.77;106724;1259;71048;-85
2023/01/12 05:07:23;;;;;;;16.70;9.50;;;;;;;-6.44;85.08;100710.14;106747;1254;74768;-85
2023/01/12 05:12:35;;;;;;;18.00;10.40;;;;;;;-6.51;85.49;100721.15;109464;1252;60987;-84
2023/01/12 05:15:03;;;;;;;21.60;10.20;;;;;;;-6.51;85.62;100726.84;108913;1253;73651;-83
2023/01/12 05:17:31;;;;;;;15.60;9.30;;;;;;;-6.37;85.68;100722.38;106797;1253;72707;-81
2023/01/12 05:19:59;;;;;;;14.90;9.20;;;;;;;-6.18;85.55;100718.66;105958;1261;72902;-82
2023/01/12 05:22:27;;;;;;;18.00;9.60;;;;;;;-6.12;85.64;100723.16;105752;1253;60429;-80
2023/01/12 05:24:54;;;;;;;18.90;10.20;;;;;;;-6.16;85.70;100710.48;106245;1256;60586;-81
2023/01/12 05:27:21;;;;;;;17.40;9.40;;;;;;;-6.15;85.99;100710.46;106740;1254;75910;-79
2023/01/12 05:29:48;;;;;;;22.60;12.30;;;;;;;-6.19;85.90;100706.59;106272;1262;72525;-81
2023/01/12 05:32:15;;;;;;;17.90;10.80;;;;;;;-6.23;85.99;100706.70;106804;1254;73589;-81
2023/01/12 05:34:42;;;;;;;20.80;10.80;;;;;;;-6.15;85.85;100706.84;107399;1254;61409;-83
2023/01/12 05:37:09;;;;;;;19.80;10.80;;;;;;;-6.07;85.60;100702.34;107271;1259;61220;-82
2023/01/12 05:39:35;;;;;;;18.10;10.50;;;;;;;-6.08;85.99;100704.61;107169;1254;75293;-82
2023/01/12 05:44:48;;;;;;;21.60;10.60;;;;;;;-6.23;86.84;100697.56;108007;1254;73691;-80
2023/01/12 05:47:15;;;;;;;19.80;9.80;;;;;;;-6.18;86.64;100703.45;106782;1255;62185;-82
2023/01/12 05:49:42;;;;;;;21.10;9.40;;;;;;;-6.04;86.66;100700.70;106366;1254;61082;-82
2023/01/12 05:52:09;;;;;;;19.10;10.70;;;;;;;-6.01;86.50;100705.27;107034;1254;74862;-82
2023/01/12 05:54:36;;;;;;;20.40;11.10;;;;;;;-6.04;86.85;100705.35;107000;1253;71247;-80
2023/01/12 05:57:03;;;;;;;24.20;12.90;;;;;;;-6.06;86.97;100708.52;109328;1253;73998;-85
2023/01/12 05:59:30;;;;;;;19.60;10.70;;;;;;;-6.04;87.57;100709.52;109324;1253;61376;-84
2023/01/12 06:01:57;;;;;;;21.50;10.80;;;;;;;-6.01;87.58;100710.30;107776;1253;62297;-76
2023/01/12 06:04:25;;;;;;;17.80;10.20;;;;;;;-5.89;87.18;100710.64;106570;1254;74908;-78
2023/01/12 06:06:52;;;;;;;19.40;10.50;;;;;;;-5.79;86.80;100711.23;106497;1254;72250;-76
2023/01/12 06:09:19;;;;;;;19.40;10.90;;;;;;;-5.81;87.00;100714.73;106023;1254;73717;-76
2023/01/12 06:14:31;;;;;;;17.00;9.40;;;;;;;-5.89;87.34;100710.30;106048;1253;61096;-79
2023/01/12 06:16:58;;;;;;;15.80;9.40;;;;;;;-5.95;87.47;100704.61;106011;1259;74996;-80
2023/01/12 06:19:25;;;;;;;16.20;8.80;;;;;;;-5.89;87.44;100713.24;107777;1253;72620;-79
2023/01/12 06:21:54;;;;;;;17.60;8.60;;;;;;;-5.80;87.21;100710.22;107895;1253;72310;-79
2023/01/12 06:24:21;;;;;;;17.30;8.90;;;;;;;-5.83;87.45;100707.55;108198;1253;62763;-79
2023/01/12 06:26:47;;;;;;;15.60;8.40;;;;;;;-5.91;87.72;100704.30;108973;1252;61093;-80
2023/01/12 06:29:14;;;;;;;16.50;8.20;;;;;;;-5.97;88.15;100698.27;108591;1253;73767;-80
2023/01/12 06:31:42;;;;;;;22.00;9.40;;;;;;;-5.99;88.30;100695.23;107134;1257;71604;-78
2023/01/12 06:34:10;;;;;;;13.70;7.20;;;;;;;-5.87;88.19;100704.19;106361;1254;74679;-77
2023/01/12 06:36:38;;;;;;;15.00;8.40;;;;;;;-5.75;88.01;100706.65;106068;1254;61878;-77
2023/01/12 06:39:05;;;;;;;17.90;9.90;;;;;;;-5.81;88.04;100700.92;105669;1259;62655;-78
2023/01/12 06:44:18;;;;;;;15.40;8.30;;;;;;;-5.93;88.79;100703.32;106232;1259;70702;-80
2023/01/12 06:46:45;;;;;;;17.70;9.00;;;;;;;-5.94;89.09;100693.36;106009;1257;74702;-78
2023/01/12 06:49:12;;;;;;;15.90;8.20;;;;;;;-5.83;89.05;100690.80;105898;1257;64174;-78
2023/01/12 06:51:39;;;;;;;15.30;8.90;;;;;;;-5.71;88.57;100686.52;106064;1258;62830;-81
2023/01/12 06:54:06;;;;;;;17.60;9.50;;;;;;;-5.74;88.78;100685.04;105692;1254;208208;-80
2023/01/12 06:58:24;;;;;;;19.50;11.10;;;;;;;-5.84;89.46;100686.86;102888;1291;600166;-77
2023/01/12 07:00:51;;;;;;;23.70;12.20;;;;;;;-5.88;89.49;100684.92;105392;1279;59326;-80
2023/01/12 07:03:18;;;;;;;16.00;9.50;;;;;;;-5.76;89.21;100687.34;105279;1269;62470;-81
2023/01/12 07:05:45;;;;;;;19.60;11.00;;;;;;;-5.67;89.05;100692.10;105361;1270;74420;-80
2023/01/12 07:08:14;;;;;;;21.10;12.60;;;;;;;-5.71;89.31;100700.84;105380;1270;70918;-79
2023/01/12 07:10:42;;;;;;;26.20;13.00;;;;;;;-5.77;89.54;100703.58;105175;1272;73518;-79
2023/01/12 07:13:08;;;;;;;27.20;13.70;;;;;;;-5.78;89.90;100711.88;105043;1270;283893;-78
2023/01/12 07:15:35;;;;;;;28.40;13.80;;;;;;;-5.76;89.77;100715.98;105243;1269;61200;-77
2023/01/12 07:18:02;;;;;;;24.60;12.70;;;;;;;-5.66;89.43;100711.60;105601;1256;74539;-79
2023/01/12 07:20:31;;;;;;;21.70;12.90;;;;;;;-5.59;89.36;100719.50;105810;1261;69906;-79
2023/01/12 07:22:58;;;;;;;24.90;13.30;;;;;;;-5.61;89.40;100715.58;105735;1264;74925;-79
2023/01/12 07:25:25;;;;;;;29.80;15.70;;;;;;;-5.66;89.55;100714.86;106195;1254;61967;-79
2023/01/12 07:27:53;;;;;;;26.60;15.50;;;;;;;-5.73;89.56;100710.73;106498;1258;61946;-78
2023/01/12 07:30:20;;;;;;;28.40;15.20;;;;;;;-5.75;89.65;100709.58;106362;1259;72951;-78
2023/01/12 07:32:48;;;;;;;31.00;15.40;;;;;;;-5.61;89.61;100709.54;106906;1254;72202;-79
2023/01/12 07:35:15;;;;;;;25.70;14.30;;;;;;;-5.49;89.11;100703.52;105815;1254;73756;-80
2023/01/12 07:37:50;;;;;;;26.60;16.50;;;;;;;-5.52;89.32;100692.73;105874;1257;60333;-80
2023/01/12 07:40:17;;;;;;;30.60;16.10;;;;;;;-5.56;89.41;100701.64;106069;1260;61857;-79
2023/01/12 07:42:43;;;;;;;33.60;16.50;;;;;;;-5.60;89.35;100700.36;106066;1260;74877;-80
2023/01/12 07:45:11;;;;;;;36.20;17.30;;;;;;;-5.51;89.43;100694.94;106381;1261;71320;-80
2023/01/12 07:47:38;;;;;;;32.30;17.90;;;;;;;-5.43;89.24;100695.75;105962;1260;72439;-78
2023/01/12 07:50:05;;;;;;;31.60;18.70;;;;;;;-5.44;89.47;100701.30;105841;1261;59606;-79
2023/01/12 07:52:32;;;;;;;34.60;18.30;;;;;;;-5.44;89.56;100696.99;106040;1259;62427;-78
2023/01/12 07:54:59;;;;;;;34.10;19.70;;;;;;;-5.41;89.53;100700.55;105778;1261;75036;-80
2023/01/12 07:57:27;;;;;;;37.20;19.30;;;;;;;-5.38;89.56;100701.49;105918;1254;72533;-81
2023/01/12 07:59:54;;;;;;;31.50;18.60;;;;;;;-5.22;89.07;100703.61;105736;1257;74808;-78
2023/01/12 08:02:21;;;;;;;39.30;20.30;;;;;;;-5.09;88.53;100704.28;105913;1256;59608;-77
2023/01/12 08:04:48;;;;;;;41.20;21.50;;;;;;;-5.08;88.60;100702.89;105858;1253;59803;-78
2023/01/12 08:07:15;;;;;;;43.00;20.50;;;;;;;-5.12;88.57;100697.98;106083;1254;73488;-78
2023/01/12 08:09:42;;;;;;;41.90;21.30;;;;;;;-5.13;88.70;100701.10;105927;1254;73054;-77
2023/01/12 08:12:09;;;;;;;34.90;19.20;;;;;;;-5.14;88.83;100690.26;105809;1260;75006;-77
2023/01/12 08:14:37;;;;;;;35.80;18.70;;;;;;;-5.04;88.44;100695.15;106010;1254;62991;-77
2023/01/12 08:17:16;;;;;;;45.50;23.40;;;;;;;-4.96;88.39;100695.41;106107;1258;61317;-77
2023/01/12 08:19:53;;;;;;;47.50;23.60;;;;;;;-4.98;88.72;100699.98;106384;1254;71664;-76
2023/01/12 08:22:23;;;;;;;43.30;22.30;;;;;;;-4.99;88.99;100703.31;106338;1260;72504;-78
2023/01/12 08:24:53;;;;;;;41.20;21.60;;;;;;;-5.01;88.87;100701.09;107005;1254;73382;-78
2023/01/12 08:27:23;;;;;;;38.70;21.50;;;;;;;-4.93;88.81;100702.75;108250;1254;61355;-76
2023/01/12 08:29:54;;;;;;;42.90;24.50;;;;;;;-4.81;88.67;100703.61;108671;1254;61093;-75
2023/01/12 08:32:21;;;;;;;52.30;25.50;;;;;;;-4.79;88.92;100693.88;108557;1254;74170;-74
2023/01/12 08:34:49;;;;;;;48.20;25.90;;;;;;;-4.81;88.92;100701.21;108272;1254;71498;-75
2023/01/12 08:37:18;;;;;;;52.90;26.70;;;;;;;-4.85;89.20;100694.41;107646;1256;73408;-74
2023/01/12 08:39:45;;;;;;;48.40;24.40;;;;;;;-4.83;89.16;100701.42;106921;1253;61239;-74
2023/01/12 08:42:12;;;;;;;50.50;25.00;;;;;;;-4.74;88.85;100692.16;106291;1260;61479;-75
2023/01/12 08:44:39;;;;;;;50.60;25.10;;;;;;;-4.65;88.68;100681.69;106028;1254;73218;-75
2023/01/12 08:47:25;;;;;;;50.90;26.90;;;;;;;-4.63;88.68;100683.86;106210;1254;71566;-75
2023/01/12 08:49:53;;;;;;;52.20;26.10;;;;;;;-4.57;89.17;100676.41;106349;1263;73599;-75
2023/01/12 08:52:20;;;;;;;53.70;27.60;;;;;;;-4.51;89.26;100672.09;106001;1254;61951;-77
2023/01/12 08:54:48;;;;;;;57.50;27.10;;;;;;;-4.46;89.28;100672.96;106037;1256;62339;-77
2023/01/12 08:57:15;;;;;;;59.50;25.80;;;;;;;-4.30;88.89;100670.38;105912;1253;73915;-77
2023/01/12 08:59:42;;;;;;;56.80;27.50;;;;;;;-4.12;88.41;100665.77;106010;1254;71849;-77
2023/01/12 09:02:10;;;;;;;51.20;26.50;;;;;;;-4.08;88.29;100668.41;106020;1260;73265;-78
2023/01/12 09:04:39;;;;;;;59.80;28.60;;;;;;;-4.09;88.18;100665.33;106320;1258;59908;-74
2023/01/12 09:07:09;;;;;;;57.60;27.50;;;;;;;-4.10;88.26;100666.76;105971;1260;62667;-77
2023/01/12 09:09:36;;;;;;;60.20;26.30;;;;;;;-4.11;87.76;100666.78;105780;1254;73888;-78
2023/01/12 09:12:03;;;;;;;48.00;23.60;;;;;;;-4.09;87.20;100663.44;105563;1260;72380;-77
2023/01/12 09:14:37;;;;;;;45.50;22.10;;;;;;;-3.99;86.90;100658.42;105850;1260;74823;-78
2023/01/12 09:17:05;;;;;;;59.40;27.20;;;;;;;-4.04;86.91;100664.47;105895;1260;61775;-76
2023/01/12 09:19:32;;;;;;;57.30;24.60;;;;;;;-4.11;87.07;100668.36;106216;1261;61224;-79
2023/01/12 09:22:02;;;;;;;59.40;26.30;;;;;;;-4.13;87.35;100662.89;106139;1254;74400;-77
2023/01/12 09:24:29;;;;;;;51.60;24.50;;;;;;;-4.12;87.49;100660.41;105815;1254;71181;-78
2023/01/12 09:26:56;;;;;;;45.70;22.10;;;;;;;-4.00;87.51;100659.84;105647;1264;75423;-77
2023/01/12 09:29:22;;;;;;;46.40;21.80;;;;;;;-3.81;87.03;100660.58;105948;1254;59598;-78
2023/01/12 09:31:49;;;;;;;42.40;21.80;;;;;;;-3.80;86.84;100670.75;105964;1262;60087;-78
2023/01/12 09:34:17;;;;;;;39.90;20.40;;;;;;;-3.82;86.81;100667.00;106059;1254;74427;-78
2023/01/12 09:36:44;;;;;;;45.30;20.20;;;;;;;-3.89;86.42;100673.14;106270;1259;70809;-79
2023/01/12 09:39:14;;;;;;;38.70;17.60;;;;;;;-4.01;86.29;100676.81;106476;1251;73573;-78
2023/01/12 09:47:49;;;;;;;33.70;17.50;;;;;;;-4.09;86.20;100671.73;106797;1254;74734;-81
2023/01/12 09:50:32;;;;;;;38.10;17.60;;;;;;;-4.19;86.64;100667.41;107939;1251;71559;-81
2023/01/12 09:53:30;;;;;;;33.00;16.30;;;;;;;-4.25;86.86;100667.59;109149;1254;71538;-82
2023/01/12 09:56:00;;;;;;;35.20;15.90;;;;;;;-4.22;86.82;100667.50;106809;1251;63087;-80
2023/01/12 09:58:52;;;;;;;33.60;17.20;;;;;;;-4.12;86.60;100666.31;106775;1253;61256;-78
2023/01/12 10:01:18;;;;;;;35.00;17.70;;;;;;;-4.16;86.86;100666.09;106534;1257;72112;-80
2023/01/12 10:03:55;;;;;;;31.60;16.70;;;;;;;-4.24;87.07;100664.45;106300;1251;71179;-80
2023/01/12 10:06:21;;;;;;;42.20;19.50;;;;;;;-4.27;87.45;100660.23;106032;1260;72220;-79
2023/01/12 10:08:55;;;;;;;39.20;17.40;;;;;;;-4.28;87.41;100662.33;106189;1254;60890;-79
2023/01/12 10:11:24;;;;;;;30.40;16.10;;;;;;;-4.19;87.04;100662.37;106204;1256;61068;-78
2023/01/12 10:14:02;;;;;;;35.50;18.20;;;;;;;-4.11;86.83;100661.95;106501;1251;72874;-78
2023/01/12 10:17:04;;;;;;;40.80;19.50;;;;;;;-4.17;86.82;100661.27;107085;1251;71507;-77
2023/01/12 10:19:43;;;;;;;44.00;20.20;;;;;;;-4.27;86.94;100654.70;107605;1251;74975;-77
2023/01/12 10:22:37;;;;;;;41.50;20.60;;;;;;;-4.32;87.41;100653.13;106792;1257;60307;-77
2023/01/12 10:25:28;;;;;;;31.90;15.50;;;;;;;-4.30;87.50;100640.96;106232;1252;61198;-77
2023/01/12 10:27:57;;;;;;;36.90;17.20;;;;;;;-4.14;86.89;100644.21;106441;1251;75455;-77
2023/01/12 10:30:30;;;;;;;37.00;21.20;;;;;;;-4.10;86.99;100636.83;106806;1251;71948;-81
2023/01/12 10:33:12;;;;;;;33.90;18.50;;;;;;;-4.15;87.21;100633.89;106732;1251;74466;-78
2023/01/12 10:35:48;;;;;;;34.10;19.50;;;;;;;-4.19;87.19;100635.73;106585;1259;60600;-80
2023/01/12 10:38:20;;;;;;;34.70;19.30;;;;;;;-4.24;87.09;100632.64;106331;1257;60611;-76
2023/01/12 10:41:05;;;;;;;31.40;15.70;;;;;;;-4.20;86.86;100632.31;106110;1251;74368;-77
2023/01/12 10:43:35;;;;;;;33.90;18.30;;;;;;;-4.15;86.63;100625.73;106115;1251;72701;-78
2023/01/12 10:46:15;;;;;;;36.10;19.40;;;;;;;-4.12;86.94;100625.83;106287;1254;72152;-77
2023/01/12 10:48:48;;;;;;;36.20;18.90;;;;;;;-4.08;87.41;100626.55;106467;1256;60199;-74
2023/01/12 10:51:32;;;;;;;39.30;21.30;;;;;;;-4.01;87.56;100620.06;106626;1251;60456;-75
2023/01/12 10:54:09;;;;;;;35.10;18.60;;;;;;;-3.95;87.38;100621.26;106466;1256;72372;-75
2023/01/12 10:57:15;;;;;;;30.80;17.10;;;;;;;-3.92;87.27;100617.51;106049;1251;72261;-77
2023/01/12 10:59:52;;;;;;;33.10;18.10;;;;;;;-3.75;86.49;100618.45;106235;1257;73426;-77
2023/01/12 11:02:21;;;;;;;32.80;18.80;;;;;;;-3.70;86.27;100622.06;106163;1257;61687;-77
2023/01/12 11:04:51;;;;;;;36.20;19.80;;;;;;;-3.73;86.18;100619.59;106227;1257;61486;-77
2023/01/12 11:07:20;;;;;;;37.80;20.80;;;;;;;-3.79;86.31;100625.67;106233;1257;75143;-77
2023/01/12 11:09:47;;;;;;;43.40;22.30;;;;;;;-3.82;86.35;100628.41;106393;1251;72469;-80
2023/01/12 11:12:35;;;;;;;43.00;21.20;;;;;;;-3.88;86.10;100626.17;106653;1259;72700;-83
2023/01/12 11:15:15;;;;;;;43.40;17.90;;;;;;;-3.88;85.71;100630.35;107509;1254;61151;-86
2023/01/12 11:18:06;;;;;;;42.60;19.80;;;;;;;-3.83;85.24;100624.96;107891;1251;61162;-84
2023/01/12 11:20:53;;;;;;;37.70;21.90;;;;;;;-3.95;85.37;100631.63;108345;1251;75008;-86
2023/01/12 11:23:30;;;;;;;41.50;21.90;;;;;;;-4.15;85.59;100629.90;109075;1254;71448;-84
2023/01/12 11:26:01;;;;;;;43.50;21.90;;;;;;;-4.31;86.02;100627.31;108983;1252;74260;-83
2023/01/12 11:28:43;;;;;;;36.50;19.30;;;;;;;-4.38;86.10;100631.19;107955;1254;60657;-84
2023/01/12 11:31:13;;;;;;;34.90;20.00;;;;;;;-4.28;86.23;100624.27;106295;1251;60549;-80
2023/01/12 11:33:48;;;;;;;38.90;21.50;;;;;;;-4.25;86.28;100615.36;106229;1254;73780;-82
2023/01/12 11:36:22;;;;;;;43.60;20.90;;;;;;;-4.33;86.67;100615.30;106585;1252;68589;-80
2023/01/12 11:39:03;;;;;;;41.20;21.70;;;;;;;-4.39;86.80;100617.21;107345;1251;72837;-79
2023/01/12 11:41:38;;;;;;;35.50;18.60;;;;;;;-4.41;87.17;100613.13;107577;1251;60267;-78
2023/01/12 11:44:58;;;;;;;37.70;19.40;;;;;;;-4.31;87.02;100605.55;108395;1251;61121;-78
2023/01/12 11:47:27;;;;;;;41.30;20.00;;;;;;;-4.12;86.98;100609.55;107826;1251;75635;-78
2023/01/12 11:50:16;;;;;;;41.30;23.20;;;;;;;-4.10;87.10;100611.05;107843;1254;70282;-79
2023/01/12 11:52:43;;;;;;;38.50;22.20;;;;;;;-4.09;87.14;100602.55;107844;1251;72759;-80
2023/01/12 11:55:15;;;;;;;51.40;25.60;;;;;;;-4.09;86.96;100598.58;108003;1251;60412;-82
2023/01/12 11:57:51;;;;;;;45.20;24.00;;;;;;;-4.08;87.03;100600.77;107548;1256;60375;-80